sensor_id;sensor_type;location;lat;lon;timestamp;P1;durP1;ratioP1;P2;durP2;ratioP2
6251;SDS011;3159;52.414;9.784;2023-12-20T00:00:59;7.50;;;6.47;;
6251;SDS011;3159;52.414;9.784;2023-12-20T00:03:26;6.63;;;5.53;;
6251;SDS011;3159;52.414;9.784;2023-12-20T00:05:53;6.97;;;5.63;;
6251;SDS011;3159;52.414;9.784;2023-12-20T00:08:20;7.00;;;5.67;;
6251;SDS011;3159;52.414;9.784;2023-12-20T00:10:47;8.37;;;5.57;;
6251;SDS011;3159;52.414;9.784;2023-12-20T00:13:15;7.33;;;5.13;;
6251;SDS011;3159;52.414;9.784;2023-12-20T00:15:42;8.40;;;5.40;;
6251;SDS011;3159;52.414;9.784;2023-12-20T00:18:09;6.50;;;4.70;;
6251;SDS011;3159;52.414;9.784;2023-12-20T00:20:35;8.10;;;4.93;;
6251;SDS011;3159;52.414;9.784;2023-12-20T00:23:02;7.50;;;4.57;;
6251;SDS011;3159;52.414;9.784;2023-12-20T00:25:30;6.63;;;4.70;;
6251;SDS011;3159;52.414;9.784;2023-12-20T00:27:56;7.83;;;4.43;;
6251;SDS011;3159;52.414;9.784;2023-12-20T00:30:24;6.73;;;4.00;;
6251;SDS011;3159;52.414;9.784;2023-12-20T00:32:51;8.27;;;4.57;;
6251;SDS011;3159;52.414;9.784;2023-12-20T00:35:18;5.97;;;4.03;;
6251;SDS011;3159;52.414;9.784;2023-12-20T00:37:45;7.87;;;3.77;;
6251;SDS011;3159;52.414;9.784;2023-12-20T00:40:12;9.47;;;4.30;;
6251;SDS011;3159;52.414;9.784;2023-12-20T00:42:39;7.23;;;3.90;;
6251;SDS011;3159;52.414;9.784;2023-12-20T00:45:06;6.33;;;3.90;;
6251;SDS011;3159;52.414;9.784;2023-12-20T00:47:34;8.87;;;3.77;;
6251;SDS011;3159;52.414;9.784;2023-12-20T00:50:01;6.67;;;3.60;;
6251;SDS011;3159;52.414;9.784;2023-12-20T00:52:28;7.97;;;3.33;;
6251;SDS011;3159;52.414;9.784;2023-12-20T00:54:55;8.03;;;3.10;;
6251;SDS011;3159;52.414;9.784;2023-12-20T00:57:21;6.30;;;2.50;;
6251;SDS011;3159;52.414;9.784;2023-12-20T00:59:48;5.20;;;2.73;;
6251;SDS011;3159;52.414;9.784;2023-12-20T01:02:15;6.23;;;2.50;;
6251;SDS011;3159;52.414;9.784;2023-12-20T01:04:43;4.67;;;2.70;;
6251;SDS011;3159;52.414;9.784;2023-12-20T01:07:10;6.93;;;2.70;;
6251;SDS011;3159;52.414;9.784;2023-12-20T01:09:37;6.17;;;2.60;;
6251;SDS011;3159;52.414;9.784;2023-12-20T01:12:04;6.10;;;2.40;;
6251;SDS011;3159;52.414;9.784;2023-12-20T01:14:31;5.70;;;2.47;;
6251;SDS011;3159;52.414;9.784;2023-12-20T01:16:58;9.80;;;2.47;;
6251;SDS011;3159;52.414;9.784;2023-12-20T01:19:25;8.00;;;2.23;;
6251;SDS011;3159;52.414;9.784;2023-12-20T01:21:55;7.53;;;2.50;;
6251;SDS011;3159;52.414;9.784;2023-12-20T01:24:22;6.63;;;2.03;;
6251;SDS011;3159;52.414;9.784;2023-12-20T01:26:49;7.57;;;2.10;;
6251;SDS011;3159;52.414;9.784;2023-12-20T01:29:16;7.03;;;1.90;;
6251;SDS011;3159;52.414;9.784;2023-12-20T01:31:42;6.67;;;2.00;;
6251;SDS011;3159;52.414;9.784;2023-12-20T01:34:09;6.37;;;2.17;;
6251;SDS011;3159;52.414;9.784;2023-12-20T01:36:36;9.60;;;2.00;;
6251;SDS011;3159;52.414;9.784;2023-12-20T01:39:04;3.73;;;1.93;;
6251;SDS011;3159;52.414;9.784;2023-12-20T01:41:31;8.97;;;2.37;;
6251;SDS011;3159;52.414;9.784;2023-12-20T01:43:58;5.93;;;2.10;;
6251;SDS011;3159;52.414;9.784;2023-12-20T01:46:25;5.93;;;1.93;;
6251;SDS011;3159;52.414;9.784;2023-12-20T01:48:52;5.40;;;1.90;;
6251;SDS011;3159;52.414;9.784;2023-12-20T01:51:19;9.23;;;1.73;;
6251;SDS011;3159;52.414;9.784;2023-12-20T01:53:47;5.77;;;2.37;;
6251;SDS011;3159;52.414;9.784;2023-12-20T01:56:16;7.70;;;2.30;;
6251;SDS011;3159;52.414;9.784;2023-12-20T01:58:44;6.87;;;2.20;;
6251;SDS011;3159;52.414;9.784;2023-12-20T02:01:12;7.73;;;1.80;;
6251;SDS011;3159;52.414;9.784;2023-12-20T02:03:39;3.60;;;1.90;;
6251;SDS011;3159;52.414;9.784;2023-12-20T02:06:07;6.10;;;1.90;;
6251;SDS011;3159;52.414;9.784;2023-12-20T02:08:35;5.80;;;1.67;;
6251;SDS011;3159;52.414;9.784;2023-12-20T02:11:02;4.93;;;1.77;;
6251;SDS011;3159;52.414;9.784;2023-12-20T02:13:31;4.90;;;1.80;;
6251;SDS011;3159;52.414;9.784;2023-12-20T02:15:58;5.23;;;2.00;;
6251;SDS011;3159;52.414;9.784;2023-12-20T02:18:25;6.40;;;2.20;;
6251;SDS011;3159;52.414;9.784;2023-12-20T02:20:52;9.27;;;2.30;;
6251;SDS011;3159;52.414;9.784;2023-12-20T02:23:20;7.47;;;2.00;;
6251;SDS011;3159;52.414;9.784;2023-12-20T02:25:47;6.70;;;1.73;;
6251;SDS011;3159;52.414;9.784;2023-12-20T02:28:14;5.23;;;1.50;;
6251;SDS011;3159;52.414;9.784;2023-12-20T02:30:41;5.07;;;1.70;;
6251;SDS011;3159;52.414;9.784;2023-12-20T02:33:07;7.03;;;1.80;;
6251;SDS011;3159;52.414;9.784;2023-12-20T02:35:38;6.10;;;1.63;;
6251;SDS011;3159;52.414;9.784;2023-12-20T02:38:04;7.33;;;1.90;;
6251;SDS011;3159;52.414;9.784;2023-12-20T02:40:33;4.13;;;1.73;;
6251;SDS011;3159;52.414;9.784;2023-12-20T02:42:59;7.37;;;1.93;;
6251;SDS011;3159;52.414;9.784;2023-12-20T02:45:26;5.50;;;1.93;;
6251;SDS011;3159;52.414;9.784;2023-12-20T02:47:53;7.20;;;1.73;;
6251;SDS011;3159;52.414;9.784;2023-12-20T02:50:20;6.47;;;2.17;;
6251;SDS011;3159;52.414;9.784;2023-12-20T02:52:47;5.90;;;1.83;;
6251;SDS011;3159;52.414;9.784;2023-12-20T02:55:13;5.97;;;2.00;;
6251;SDS011;3159;52.414;9.784;2023-12-20T02:57:42;6.83;;;1.93;;
6251;SDS011;3159;52.414;9.784;2023-12-20T03:00:09;3.10;;;1.80;;
6251;SDS011;3159;52.414;9.784;2023-12-20T03:02:36;7.33;;;2.30;;
6251;SDS011;3159;52.414;9.784;2023-12-20T03:05:03;4.37;;;2.30;;
6251;SDS011;3159;52.414;9.784;2023-12-20T03:07:30;7.37;;;2.60;;
6251;SDS011;3159;52.414;9.784;2023-12-20T03:09:57;7.43;;;2.63;;
6251;SDS011;3159;52.414;9.784;2023-12-20T03:12:24;8.87;;;2.67;;
6251;SDS011;3159;52.414;9.784;2023-12-20T03:14:52;9.20;;;2.47;;
6251;SDS011;3159;52.414;9.784;2023-12-20T03:17:19;7.03;;;1.90;;
6251;SDS011;3159;52.414;9.784;2023-12-20T03:19:46;5.33;;;2.00;;
6251;SDS011;3159;52.414;9.784;2023-12-20T03:22:12;8.00;;;2.03;;
6251;SDS011;3159;52.414;9.784;2023-12-20T03:24:39;6.97;;;1.90;;
6251;SDS011;3159;52.414;9.784;2023-12-20T03:27:06;7.30;;;1.80;;
6251;SDS011;3159;52.414;9.784;2023-12-20T03:29:33;3.00;;;1.70;;
6251;SDS011;3159;52.414;9.784;2023-12-20T03:32:01;5.03;;;1.60;;
6251;SDS011;3159;52.414;9.784;2023-12-20T03:34:28;6.03;;;2.10;;
6251;SDS011;3159;52.414;9.784;2023-12-20T03:36:55;8.20;;;1.83;;
6251;SDS011;3159;52.414;9.784;2023-12-20T03:39:21;4.83;;;1.60;;
6251;SDS011;3159;52.414;9.784;2023-12-20T03:41:48;7.53;;;1.73;;
6251;SDS011;3159;52.414;9.784;2023-12-20T03:44:15;4.10;;;1.40;;
6251;SDS011;3159;52.414;9.784;2023-12-20T03:46:42;4.13;;;1.50;;
6251;SDS011;3159;52.414;9.784;2023-12-20T03:49:12;3.20;;;1.70;;
6251;SDS011;3159;52.414;9.784;2023-12-20T03:51:38;5.90;;;1.60;;
6251;SDS011;3159;52.414;9.784;2023-12-20T03:54:07;5.60;;;1.30;;
6251;SDS011;3159;52.414;9.784;2023-12-20T03:56:33;3.27;;;1.30;;
6251;SDS011;3159;52.414;9.784;2023-12-20T03:59:00;5.40;;;1.27;;
6251;SDS011;3159;52.414;9.784;2023-12-20T04:01:27;6.97;;;1.63;;
6251;SDS011;3159;52.414;9.784;2023-12-20T04:03:54;5.77;;;1.30;;
6251;SDS011;3159;52.414;9.784;2023-12-20T04:06:22;5.53;;;1.30;;
6251;SDS011;3159;52.414;9.784;2023-12-20T04:08:48;4.63;;;1.17;;
6251;SDS011;3159;52.414;9.784;2023-12-20T04:11:15;5.43;;;1.67;;
6251;SDS011;3159;52.414;9.784;2023-12-20T04:13:42;8.97;;;1.60;;
6251;SDS011;3159;52.414;9.784;2023-12-20T04:16:09;3.33;;;1.20;;
6251;SDS011;3159;52.414;9.784;2023-12-20T04:18:35;5.10;;;1.10;;
6251;SDS011;3159;52.414;9.784;2023-12-20T04:21:02;5.30;;;1.63;;
6251;SDS011;3159;52.414;9.784;2023-12-20T04:23:31;6.83;;;1.40;;
6251;SDS011;3159;52.414;9.784;2023-12-20T04:25:58;5.07;;;1.30;;
6251;SDS011;3159;52.414;9.784;2023-12-20T04:28:24;7.53;;;1.97;;
6251;SDS011;3159;52.414;9.784;2023-12-20T04:30:51;3.00;;;1.10;;
6251;SDS011;3159;52.414;9.784;2023-12-20T04:33:18;8.43;;;1.60;;
6251;SDS011;3159;52.414;9.784;2023-12-20T04:35:45;10.03;;;1.77;;
6251;SDS011;3159;52.414;9.784;2023-12-20T04:38:11;4.63;;;1.70;;
6251;SDS011;3159;52.414;9.784;2023-12-20T04:40:39;5.17;;;1.77;;
6251;SDS011;3159;52.414;9.784;2023-12-20T04:43:06;5.80;;;1.60;;
6251;SDS011;3159;52.414;9.784;2023-12-20T04:45:33;8.53;;;1.83;;
6251;SDS011;3159;52.414;9.784;2023-12-20T04:48:00;8.33;;;1.90;;
6251;SDS011;3159;52.414;9.784;2023-12-20T04:50:27;8.30;;;1.90;;
6251;SDS011;3159;52.414;9.784;2023-12-20T04:52:54;3.43;;;1.50;;
6251;SDS011;3159;52.414;9.784;2023-12-20T04:55:21;5.17;;;1.90;;
6251;SDS011;3159;52.414;9.784;2023-12-20T04:57:49;9.23;;;2.57;;
6251;SDS011;3159;52.414;9.784;2023-12-20T05:00:16;8.77;;;2.27;;
6251;SDS011;3159;52.414;9.784;2023-12-20T05:02:43;9.60;;;2.30;;
6251;SDS011;3159;52.414;9.784;2023-12-20T05:05:10;6.93;;;2.13;;
6251;SDS011;3159;52.414;9.784;2023-12-20T05:07:37;8.63;;;2.03;;
6251;SDS011;3159;52.414;9.784;2023-12-20T05:10:04;10.93;;;2.40;;
6251;SDS011;3159;52.414;9.784;2023-12-20T05:12:33;11.80;;;2.00;;
6251;SDS011;3159;52.414;9.784;2023-12-20T05:15:01;7.03;;;1.97;;
6251;SDS011;3159;52.414;9.784;2023-12-20T05:17:28;6.07;;;2.20;;
6251;SDS011;3159;52.414;9.784;2023-12-20T05:19:55;7.30;;;1.90;;
6251;SDS011;3159;52.414;9.784;2023-12-20T05:22:22;10.30;;;2.40;;
6251;SDS011;3159;52.414;9.784;2023-12-20T05:24:48;7.30;;;2.30;;
6251;SDS011;3159;52.414;9.784;2023-12-20T05:27:15;9.73;;;2.53;;
6251;SDS011;3159;52.414;9.784;2023-12-20T05:29:42;7.93;;;2.50;;
6251;SDS011;3159;52.414;9.784;2023-12-20T05:32:10;5.97;;;2.20;;
6251;SDS011;3159;52.414;9.784;2023-12-20T05:34:37;9.13;;;2.20;;
6251;SDS011;3159;52.414;9.784;2023-12-20T05:37:03;8.43;;;2.10;;
6251;SDS011;3159;52.414;9.784;2023-12-20T05:39:30;12.87;;;2.70;;
6251;SDS011;3159;52.414;9.784;2023-12-20T05:41:57;10.00;;;2.53;;
6251;SDS011;3159;52.414;9.784;2023-12-20T05:44:24;10.97;;;2.40;;
6251;SDS011;3159;52.414;9.784;2023-12-20T05:46:51;7.70;;;2.37;;
6251;SDS011;3159;52.414;9.784;2023-12-20T05:49:19;6.67;;;2.73;;
6251;SDS011;3159;52.414;9.784;2023-12-20T05:51:46;8.07;;;2.27;;
6251;SDS011;3159;52.414;9.784;2023-12-20T05:54:13;9.40;;;2.63;;
6251;SDS011;3159;52.414;9.784;2023-12-20T05:56:40;9.87;;;2.50;;
6251;SDS011;3159;52.414;9.784;2023-12-20T05:59:07;9.00;;;3.30;;
6251;SDS011;3159;52.414;9.784;2023-12-20T06:01:34;8.13;;;2.80;;
6251;SDS011;3159;52.414;9.784;2023-12-20T06:04:01;7.63;;;2.47;;
6251;SDS011;3159;52.414;9.784;2023-12-20T06:06:29;9.00;;;2.43;;
6251;SDS011;3159;52.414;9.784;2023-12-20T06:08:56;11.50;;;2.90;;
6251;SDS011;3159;52.414;9.784;2023-12-20T06:11:23;12.40;;;3.03;;
6251;SDS011;3159;52.414;9.784;2023-12-20T06:13:50;9.47;;;2.73;;
6251;SDS011;3159;52.414;9.784;2023-12-20T06:16:18;7.63;;;2.30;;
6251;SDS011;3159;52.414;9.784;2023-12-20T06:18:45;10.33;;;2.40;;
6251;SDS011;3159;52.414;9.784;2023-12-20T06:21:12;8.10;;;2.83;;
6251;SDS011;3159;52.414;9.784;2023-12-20T06:23:40;7.87;;;2.67;;
6251;SDS011;3159;52.414;9.784;2023-12-20T06:26:07;9.00;;;2.80;;
6251;SDS011;3159;52.414;9.784;2023-12-20T06:28:34;8.40;;;2.57;;
6251;SDS011;3159;52.414;9.784;2023-12-20T06:31:01;8.70;;;2.40;;
6251;SDS011;3159;52.414;9.784;2023-12-20T06:33:28;10.60;;;2.80;;
6251;SDS011;3159;52.414;9.784;2023-12-20T06:35:56;10.70;;;2.97;;
6251;SDS011;3159;52.414;9.784;2023-12-20T06:38:23;8.50;;;2.50;;
6251;SDS011;3159;52.414;9.784;2023-12-20T06:40:51;10.33;;;2.70;;
6251;SDS011;3159;52.414;9.784;2023-12-20T06:43:17;9.03;;;3.30;;
6251;SDS011;3159;52.414;9.784;2023-12-20T06:45:44;10.90;;;2.63;;
6251;SDS011;3159;52.414;9.784;2023-12-20T06:48:11;11.23;;;2.80;;
6251;SDS011;3159;52.414;9.784;2023-12-20T06:50:38;13.70;;;3.03;;
6251;SDS011;3159;52.414;9.784;2023-12-20T06:53:05;11.20;;;3.30;;
6251;SDS011;3159;52.414;9.784;2023-12-20T06:55:33;12.27;;;3.60;;
6251;SDS011;3159;52.414;9.784;2023-12-20T06:58:01;11.77;;;3.30;;
6251;SDS011;3159;52.414;9.784;2023-12-20T07:00:28;12.03;;;2.97;;
6251;SDS011;3159;52.414;9.784;2023-12-20T07:02:55;15.20;;;3.10;;
6251;SDS011;3159;52.414;9.784;2023-12-20T07:05:22;10.67;;;2.70;;
6251;SDS011;3159;52.414;9.784;2023-12-20T07:07:49;14.63;;;3.40;;
6251;SDS011;3159;52.414;9.784;2023-12-20T07:10:15;11.33;;;3.47;;
6251;SDS011;3159;52.414;9.784;2023-12-20T07:12:42;9.77;;;2.73;;
6251;SDS011;3159;52.414;9.784;2023-12-20T07:15:10;16.80;;;3.17;;
6251;SDS011;3159;52.414;9.784;2023-12-20T07:17:37;13.50;;;2.83;;
6251;SDS011;3159;52.414;9.784;2023-12-20T07:20:05;9.40;;;2.97;;
6251;SDS011;3159;52.414;9.784;2023-12-20T07:22:35;17.47;;;2.63;;
6251;SDS011;3159;52.414;9.784;2023-12-20T07:25:02;10.27;;;3.10;;
6251;SDS011;3159;52.414;9.784;2023-12-20T07:27:30;16.10;;;3.10;;
6251;SDS011;3159;52.414;9.784;2023-12-20T07:29:56;15.07;;;3.10;;
6251;SDS011;3159;52.414;9.784;2023-12-20T07:32:24;10.87;;;2.93;;
6251;SDS011;3159;52.414;9.784;2023-12-20T07:34:51;8.37;;;2.57;;
6251;SDS011;3159;52.414;9.784;2023-12-20T07:37:18;9.90;;;2.53;;
6251;SDS011;3159;52.414;9.784;2023-12-20T07:39:46;12.97;;;3.33;;
6251;SDS011;3159;52.414;9.784;2023-12-20T07:42:13;10.50;;;2.90;;
6251;SDS011;3159;52.414;9.784;2023-12-20T07:44:39;10.97;;;3.20;;
6251;SDS011;3159;52.414;9.784;2023-12-20T07:47:06;12.87;;;3.20;;
6251;SDS011;3159;52.414;9.784;2023-12-20T07:49:34;11.10;;;2.80;;
6251;SDS011;3159;52.414;9.784;2023-12-20T07:52:01;8.43;;;2.60;;
6251;SDS011;3159;52.414;9.784;2023-12-20T07:54:28;12.03;;;3.33;;
6251;SDS011;3159;52.414;9.784;2023-12-20T07:56:55;11.30;;;2.67;;
6251;SDS011;3159;52.414;9.784;2023-12-20T07:59:23;7.90;;;2.50;;
6251;SDS011;3159;52.414;9.784;2023-12-20T08:01:49;9.50;;;2.23;;
6251;SDS011;3159;52.414;9.784;2023-12-20T08:04:16;10.27;;;2.57;;
6251;SDS011;3159;52.414;9.784;2023-12-20T08:06:44;7.07;;;2.50;;
6251;SDS011;3159;52.414;9.784;2023-12-20T08:09:11;11.93;;;2.57;;
6251;SDS011;3159;52.414;9.784;2023-12-20T08:11:38;9.73;;;2.90;;
6251;SDS011;3159;52.414;9.784;2023-12-20T08:14:04;11.93;;;2.83;;
6251;SDS011;3159;52.414;9.784;2023-12-20T08:16:31;10.80;;;2.50;;
6251;SDS011;3159;52.414;9.784;2023-12-20T08:18:58;8.70;;;2.53;;
6251;SDS011;3159;52.414;9.784;2023-12-20T08:21:25;7.90;;;3.07;;
6251;SDS011;3159;52.414;9.784;2023-12-20T08:23:53;12.07;;;3.03;;
6251;SDS011;3159;52.414;9.784;2023-12-20T08:26:19;8.00;;;2.83;;
6251;SDS011;3159;52.414;9.784;2023-12-20T08:28:47;7.03;;;2.87;;
6251;SDS011;3159;52.414;9.784;2023-12-20T08:31:14;14.23;;;2.97;;
6251;SDS011;3159;52.414;9.784;2023-12-20T08:33:42;10.40;;;2.87;;
6251;SDS011;3159;52.414;9.784;2023-12-20T08:36:10;12.93;;;2.60;;
6251;SDS011;3159;52.414;9.784;2023-12-20T08:38:37;9.43;;;3.10;;
6251;SDS011;3159;52.414;9.784;2023-12-20T08:41:06;11.23;;;2.77;;
6251;SDS011;3159;52.414;9.784;2023-12-20T08:43:33;12.80;;;3.07;;
6251;SDS011;3159;52.414;9.784;2023-12-20T08:46:01;9.73;;;3.03;;
6251;SDS011;3159;52.414;9.784;2023-12-20T08:48:28;9.33;;;3.17;;
6251;SDS011;3159;52.414;9.784;2023-12-20T08:50:54;10.63;;;2.80;;
6251;SDS011;3159;52.414;9.784;2023-12-20T08:53:21;12.30;;;3.00;;
6251;SDS011;3159;52.414;9.784;2023-12-20T08:55:48;10.97;;;2.63;;
6251;SDS011;3159;52.414;9.784;2023-12-20T08:58:16;8.33;;;2.73;;
6251;SDS011;3159;52.414;9.784;2023-12-20T09:00:43;7.23;;;2.43;;
6251;SDS011;3159;52.414;9.784;2023-12-20T09:03:11;8.80;;;2.47;;
6251;SDS011;3159;52.414;9.784;2023-12-20T09:05:37;6.90;;;2.60;;
6251;SDS011;3159;52.414;9.784;2023-12-20T09:08:04;13.13;;;2.57;;
6251;SDS011;3159;52.414;9.784;2023-12-20T09:10:32;7.10;;;2.30;;
6251;SDS011;3159;52.414;9.784;2023-12-20T09:12:59;10.17;;;2.80;;
6251;SDS011;3159;52.414;9.784;2023-12-20T09:15:27;8.87;;;2.37;;
6251;SDS011;3159;52.414;9.784;2023-12-20T09:17:55;10.27;;;2.20;;
6251;SDS011;3159;52.414;9.784;2023-12-20T09:20:22;13.27;;;2.67;;
6251;SDS011;3159;52.414;9.784;2023-12-20T09:22:49;10.33;;;2.60;;
6251;SDS011;3159;52.414;9.784;2023-12-20T09:25:16;8.10;;;2.60;;
6251;SDS011;3159;52.414;9.784;2023-12-20T09:27:43;12.97;;;3.10;;
6251;SDS011;3159;52.414;9.784;2023-12-20T09:30:10;7.27;;;2.47;;
6251;SDS011;3159;52.414;9.784;2023-12-20T09:32:38;11.97;;;2.70;;
6251;SDS011;3159;52.414;9.784;2023-12-20T09:35:05;12.43;;;2.90;;
6251;SDS011;3159;52.414;9.784;2023-12-20T09:37:33;8.90;;;2.73;;
6251;SDS011;3159;52.414;9.784;2023-12-20T09:40:00;11.30;;;2.63;;
6251;SDS011;3159;52.414;9.784;2023-12-20T09:42:29;6.70;;;2.43;;
6251;SDS011;3159;52.414;9.784;2023-12-20T09:45:01;6.87;;;2.60;;
6251;SDS011;3159;52.414;9.784;2023-12-20T09:47:29;15.23;;;2.83;;
6251;SDS011;3159;52.414;9.784;2023-12-20T09:49:58;8.37;;;2.40;;
6251;SDS011;3159;52.414;9.784;2023-12-20T09:52:24;10.30;;;2.60;;
6251;SDS011;3159;52.414;9.784;2023-12-20T09:54:52;7.80;;;2.30;;
6251;SDS011;3159;52.414;9.784;2023-12-20T09:57:20;9.20;;;2.50;;
6251;SDS011;3159;52.414;9.784;2023-12-20T09:59:47;6.97;;;2.67;;
6251;SDS011;3159;52.414;9.784;2023-12-20T10:02:13;11.80;;;2.77;;
6251;SDS011;3159;52.414;9.784;2023-12-20T10:04:41;11.53;;;2.80;;
6251;SDS011;3159;52.414;9.784;2023-12-20T10:07:15;10.57;;;3.03;;
6251;SDS011;3159;52.414;9.784;2023-12-20T10:09:42;9.07;;;2.80;;
6251;SDS011;3159;52.414;9.784;2023-12-20T10:12:10;9.50;;;2.53;;
6251;SDS011;3159;52.414;9.784;2023-12-20T10:14:37;9.80;;;2.70;;
6251;SDS011;3159;52.414;9.784;2023-12-20T10:17:05;6.80;;;2.67;;
6251;SDS011;3159;52.414;9.784;2023-12-20T10:19:33;10.33;;;2.90;;
6251;SDS011;3159;52.414;9.784;2023-12-20T10:22:00;8.43;;;2.63;;
6251;SDS011;3159;52.414;9.784;2023-12-20T10:24:29;10.37;;;2.67;;
6251;SDS011;3159;52.414;9.784;2023-12-20T10:27:02;8.47;;;2.53;;
6251;SDS011;3159;52.414;9.784;2023-12-20T10:29:33;11.77;;;2.97;;
6251;SDS011;3159;52.414;9.784;2023-12-20T10:32:01;10.93;;;3.00;;
6251;SDS011;3159;52.414;9.784;2023-12-20T10:34:48;9.13;;;2.70;;
6251;SDS011;3159;52.414;9.784;2023-12-20T10:37:15;7.60;;;2.33;;
6251;SDS011;3159;52.414;9.784;2023-12-20T10:39:44;11.43;;;2.83;;
6251;SDS011;3159;52.414;9.784;2023-12-20T10:42:16;11.87;;;2.50;;
6251;SDS011;3159;52.414;9.784;2023-12-20T10:44:44;9.90;;;2.77;;
6251;SDS011;3159;52.414;9.784;2023-12-20T10:47:11;10.47;;;2.67;;
6251;SDS011;3159;52.414;9.784;2023-12-20T10:49:39;5.70;;;2.27;;
6251;SDS011;3159;52.414;9.784;2023-12-20T10:52:07;9.70;;;2.83;;
6251;SDS011;3159;52.414;9.784;2023-12-20T10:54:37;12.73;;;2.60;;
6251;SDS011;3159;52.414;9.784;2023-12-20T10:57:05;9.80;;;2.37;;
6251;SDS011;3159;52.414;9.784;2023-12-20T10:59:32;8.60;;;2.43;;
6251;SDS011;3159;52.414;9.784;2023-12-20T11:02:02;12.03;;;2.60;;
6251;SDS011;3159;52.414;9.784;2023-12-20T11:04:31;5.53;;;2.53;;
6251;SDS011;3159;52.414;9.784;2023-12-20T11:07:05;9.87;;;2.97;;
6251;SDS011;3159;52.414;9.784;2023-12-20T11:09:43;11.70;;;3.40;;
6251;SDS011;3159;52.414;9.784;2023-12-20T11:12:16;10.80;;;2.80;;
6251;SDS011;3159;52.414;9.784;2023-12-20T11:14:50;10.33;;;2.70;;
6251;SDS011;3159;52.414;9.784;2023-12-20T11:17:19;4.73;;;2.13;;
6251;SDS011;3159;52.414;9.784;2023-12-20T11:20:04;6.97;;;2.83;;
6251;SDS011;3159;52.414;9.784;2023-12-20T11:22:37;8.50;;;2.60;;
6251;SDS011;3159;52.414;9.784;2023-12-20T11:25:07;8.70;;;3.07;;
6251;SDS011;3159;52.414;9.784;2023-12-20T11:27:36;7.87;;;2.80;;
6251;SDS011;3159;52.414;9.784;2023-12-20T11:30:07;8.40;;;3.00;;
6251;SDS011;3159;52.414;9.784;2023-12-20T11:32:35;6.03;;;2.40;;
6251;SDS011;3159;52.414;9.784;2023-12-20T11:35:16;7.90;;;2.63;;
6251;SDS011;3159;52.414;9.784;2023-12-20T11:37:44;7.07;;;2.60;;
6251;SDS011;3159;52.414;9.784;2023-12-20T11:40:14;6.93;;;2.40;;
6251;SDS011;3159;52.414;9.784;2023-12-20T11:42:43;11.30;;;2.43;;
6251;SDS011;3159;52.414;9.784;2023-12-20T11:45:11;8.43;;;2.60;;
6251;SDS011;3159;52.414;9.784;2023-12-20T11:47:41;8.20;;;2.37;;
6251;SDS011;3159;52.414;9.784;2023-12-20T11:50:09;7.83;;;2.57;;
6251;SDS011;3159;52.414;9.784;2023-12-20T11:52:36;4.33;;;1.80;;
6251;SDS011;3159;52.414;9.784;2023-12-20T11:55:03;3.70;;;1.37;;
6251;SDS011;3159;52.414;9.784;2023-12-20T11:57:30;2.80;;;1.10;;
6251;SDS011;3159;52.414;9.784;2023-12-20T12:00:00;3.37;;;1.17;;
6251;SDS011;3159;52.414;9.784;2023-12-20T12:02:27;6.27;;;1.10;;
6251;SDS011;3159;52.414;9.784;2023-12-20T12:04:54;2.57;;;1.10;;
6251;SDS011;3159;52.414;9.784;2023-12-20T12:07:21;3.07;;;0.90;;
6251;SDS011;3159;52.414;9.784;2023-12-20T12:09:48;3.67;;;1.37;;
6251;SDS011;3159;52.414;9.784;2023-12-20T12:12:15;5.10;;;1.40;;
6251;SDS011;3159;52.414;9.784;2023-12-20T12:14:42;3.37;;;1.07;;
6251;SDS011;3159;52.414;9.784;2023-12-20T12:17:12;2.43;;;1.30;;
6251;SDS011;3159;52.414;9.784;2023-12-20T12:19:39;4.60;;;1.40;;
6251;SDS011;3159;52.414;9.784;2023-12-20T12:22:07;1.63;;;0.90;;
6251;SDS011;3159;52.414;9.784;2023-12-20T12:24:37;3.00;;;0.90;;
6251;SDS011;3159;52.414;9.784;2023-12-20T12:27:08;3.30;;;0.80;;
6251;SDS011;3159;52.414;9.784;2023-12-20T12:29:35;3.63;;;0.90;;
6251;SDS011;3159;52.414;9.784;2023-12-20T12:32:04;1.33;;;0.80;;
6251;SDS011;3159;52.414;9.784;2023-12-20T12:34:33;3.87;;;0.70;;
6251;SDS011;3159;52.414;9.784;2023-12-20T12:37:01;1.20;;;0.60;;
6251;SDS011;3159;52.414;9.784;2023-12-20T12:39:30;3.83;;;1.07;;
6251;SDS011;3159;52.414;9.784;2023-12-20T12:41:56;1.53;;;0.80;;
6251;SDS011;3159;52.414;9.784;2023-12-20T12:44:23;3.37;;;0.80;;
6251;SDS011;3159;52.414;9.784;2023-12-20T12:46:51;2.20;;;0.63;;
6251;SDS011;3159;52.414;9.784;2023-12-20T12:49:18;2.13;;;0.77;;
6251;SDS011;3159;52.414;9.784;2023-12-20T12:51:47;3.63;;;0.80;;
6251;SDS011;3159;52.414;9.784;2023-12-20T12:54:15;2.27;;;0.90;;
6251;SDS011;3159;52.414;9.784;2023-12-20T12:56:43;4.30;;;1.07;;
6251;SDS011;3159;52.414;9.784;2023-12-20T12:59:10;3.67;;;1.10;;
6251;SDS011;3159;52.414;9.784;2023-12-20T13:01:37;3.70;;;0.90;;
6251;SDS011;3159;52.414;9.784;2023-12-20T13:04:04;3.87;;;0.70;;
6251;SDS011;3159;52.414;9.784;2023-12-20T13:06:35;4.50;;;1.10;;
6251;SDS011;3159;52.414;9.784;2023-12-20T13:09:03;1.57;;;0.90;;
6251;SDS011;3159;52.414;9.784;2023-12-20T13:11:30;3.40;;;0.97;;
6251;SDS011;3159;52.414;9.784;2023-12-20T13:13:57;4.93;;;0.80;;
6251;SDS011;3159;52.414;9.784;2023-12-20T13:16:24;3.23;;;1.00;;
6251;SDS011;3159;52.414;9.784;2023-12-20T13:18:51;2.60;;;0.77;;
6251;SDS011;3159;52.414;9.784;2023-12-20T13:21:18;4.23;;;1.07;;
6251;SDS011;3159;52.414;9.784;2023-12-20T13:23:45;2.77;;;0.80;;
6251;SDS011;3159;52.414;9.784;2023-12-20T13:26:13;3.67;;;1.30;;
6251;SDS011;3159;52.414;9.784;2023-12-20T13:28:40;4.37;;;1.00;;
6251;SDS011;3159;52.414;9.784;2023-12-20T13:31:07;2.97;;;0.80;;
6251;SDS011;3159;52.414;9.784;2023-12-20T13:33:34;2.17;;;0.67;;
6251;SDS011;3159;52.414;9.784;2023-12-20T13:36:01;5.33;;;1.00;;
6251;SDS011;3159;52.414;9.784;2023-12-20T13:38:29;3.67;;;0.97;;
6251;SDS011;3159;52.414;9.784;2023-12-20T13:40:56;4.50;;;1.10;;
6251;SDS011;3159;52.414;9.784;2023-12-20T13:43:24;3.23;;;0.90;;
6251;SDS011;3159;52.414;9.784;2023-12-20T13:45:51;3.27;;;0.80;;
6251;SDS011;3159;52.414;9.784;2023-12-20T13:48:18;2.93;;;0.90;;
6251;SDS011;3159;52.414;9.784;2023-12-20T13:50:45;4.47;;;1.10;;
6251;SDS011;3159;52.414;9.784;2023-12-20T13:53:11;3.67;;;1.03;;
6251;SDS011;3159;52.414;9.784;2023-12-20T13:55:39;2.80;;;1.40;;
6251;SDS011;3159;52.414;9.784;2023-12-20T13:58:05;5.07;;;1.23;;
6251;SDS011;3159;52.414;9.784;2023-12-20T14:00:35;1.80;;;1.00;;
6251;SDS011;3159;52.414;9.784;2023-12-20T14:03:03;6.70;;;1.00;;
6251;SDS011;3159;52.414;9.784;2023-12-20T14:05:30;3.80;;;1.20;;
6251;SDS011;3159;52.414;9.784;2023-12-20T14:07:58;5.80;;;1.20;;
6251;SDS011;3159;52.414;9.784;2023-12-20T14:10:25;2.30;;;1.10;;
6251;SDS011;3159;52.414;9.784;2023-12-20T14:12:52;5.33;;;1.20;;
6251;SDS011;3159;52.414;9.784;2023-12-20T14:15:19;3.13;;;1.37;;
6251;SDS011;3159;52.414;9.784;2023-12-20T14:17:47;4.40;;;1.20;;
6251;SDS011;3159;52.414;9.784;2023-12-20T14:20:14;5.53;;;1.43;;
6251;SDS011;3159;52.414;9.784;2023-12-20T14:22:41;1.87;;;0.97;;
6251;SDS011;3159;52.414;9.784;2023-12-20T14:25:10;3.50;;;1.17;;
6251;SDS011;3159;52.414;9.784;2023-12-20T14:27:38;3.87;;;1.23;;
6251;SDS011;3159;52.414;9.784;2023-12-20T14:30:05;3.27;;;1.13;;
6251;SDS011;3159;52.414;9.784;2023-12-20T14:32:34;5.03;;;1.60;;
6251;SDS011;3159;52.414;9.784;2023-12-20T14:35:04;4.53;;;1.40;;
6251;SDS011;3159;52.414;9.784;2023-12-20T14:37:33;5.23;;;1.47;;
6251;SDS011;3159;52.414;9.784;2023-12-20T14:40:00;4.57;;;1.40;;
6251;SDS011;3159;52.414;9.784;2023-12-20T14:42:27;3.13;;;1.33;;
6251;SDS011;3159;52.414;9.784;2023-12-20T14:44:54;4.37;;;1.50;;
6251;SDS011;3159;52.414;9.784;2023-12-20T14:47:21;4.77;;;1.37;;
6251;SDS011;3159;52.414;9.784;2023-12-20T14:49:48;4.83;;;1.63;;
6251;SDS011;3159;52.414;9.784;2023-12-20T14:52:16;4.63;;;1.63;;
6251;SDS011;3159;52.414;9.784;2023-12-20T14:54:43;3.53;;;1.27;;
6251;SDS011;3159;52.414;9.784;2023-12-20T14:57:10;7.00;;;1.63;;
6251;SDS011;3159;52.414;9.784;2023-12-20T14:59:37;5.67;;;1.50;;
6251;SDS011;3159;52.414;9.784;2023-12-20T15:02:04;4.13;;;1.63;;
6251;SDS011;3159;52.414;9.784;2023-12-20T15:04:31;4.50;;;1.53;;
6251;SDS011;3159;52.414;9.784;2023-12-20T15:06:58;7.50;;;1.80;;
6251;SDS011;3159;52.414;9.784;2023-12-20T15:09:26;4.77;;;1.70;;
6251;SDS011;3159;52.414;9.784;2023-12-20T15:11:54;6.63;;;1.40;;
6251;SDS011;3159;52.414;9.784;2023-12-20T15:14:21;5.20;;;1.50;;